sensor_id;sensor_type;location;lat;lon;timestamp;P1;durP1;ratioP1;P2;durP2;ratioP2
15913;SDS011;8055;51.930;8.840;2023-12-20T00:01:02;17.75;;;10.15;;
15913;SDS011;8055;51.930;8.840;2023-12-20T00:03:28;17.70;;;9.68;;
15913;SDS011;8055;51.930;8.840;2023-12-20T00:05:53;16.85;;;8.68;;
15913;SDS011;8055;51.930;8.840;2023-12-20T00:08:18;13.82;;;7.63;;
15913;SDS011;8055;51.930;8.840;2023-12-20T00:10:44;12.45;;;7.05;;
15913;SDS011;8055;51.930;8.840;2023-12-20T00:13:09;12.00;;;6.78;;
15913;SDS011;8055;51.930;8.840;2023-12-20T00:15:35;10.98;;;7.00;;
15913;SDS011;8055;51.930;8.840;2023-12-20T00:18:01;10.68;;;5.88;;
15913;SDS011;8055;51.930;8.840;2023-12-20T00:20:26;12.45;;;6.15;;
15913;SDS011;8055;51.930;8.840;2023-12-20T00:22:53;11.88;;;6.72;;
15913;SDS011;8055;51.930;8.840;2023-12-20T00:25:21;15.57;;;7.80;;
15913;SDS011;8055;51.930;8.840;2023-12-20T00:27:46;12.98;;;7.00;;
15913;SDS011;8055;51.930;8.840;2023-12-20T00:30:11;13.38;;;7.13;;
15913;SDS011;8055;51.930;8.840;2023-12-20T00:32:37;13.23;;;7.55;;
15913;SDS011;8055;51.930;8.840;2023-12-20T00:35:02;11.93;;;7.25;;
15913;SDS011;8055;51.930;8.840;2023-12-20T00:37:28;13.30;;;7.13;;
15913;SDS011;8055;51.930;8.840;2023-12-20T00:39:53;17.02;;;7.38;;
15913;SDS011;8055;51.930;8.840;2023-12-20T00:42:19;14.88;;;7.57;;
15913;SDS011;8055;51.930;8.840;2023-12-20T00:44:44;14.85;;;7.45;;
15913;SDS011;8055;51.930;8.840;2023-12-20T00:47:10;16.67;;;7.90;;
15913;SDS011;8055;51.930;8.840;2023-12-20T00:49:35;12.82;;;7.82;;
15913;SDS011;8055;51.930;8.840;2023-12-20T00:52:00;15.90;;;7.70;;
15913;SDS011;8055;51.930;8.840;2023-12-20T00:54:26;19.27;;;7.22;;
15913;SDS011;8055;51.930;8.840;2023-12-20T00:56:51;13.35;;;6.70;;
15913;SDS011;8055;51.930;8.840;2023-12-20T00:59:16;13.88;;;6.68;;
15913;SDS011;8055;51.930;8.840;2023-12-20T01:01:43;13.35;;;7.38;;
15913;SDS011;8055;51.930;8.840;2023-12-20T01:04:08;14.13;;;6.57;;
15913;SDS011;8055;51.930;8.840;2023-12-20T01:06:33;15.80;;;6.93;;
15913;SDS011;8055;51.930;8.840;2023-12-20T01:08:59;13.10;;;6.75;;
15913;SDS011;8055;51.930;8.840;2023-12-20T01:11:24;13.88;;;6.25;;
15913;SDS011;8055;51.930;8.840;2023-12-20T01:13:49;13.77;;;6.00;;
15913;SDS011;8055;51.930;8.840;2023-12-20T01:16:15;11.90;;;5.90;;
15913;SDS011;8055;51.930;8.840;2023-12-20T01:18:40;15.75;;;6.00;;
15913;SDS011;8055;51.930;8.840;2023-12-20T01:21:06;11.98;;;5.10;;
15913;SDS011;8055;51.930;8.840;2023-12-20T01:23:31;14.77;;;5.38;;
15913;SDS011;8055;51.930;8.840;2023-12-20T01:25:57;9.23;;;4.80;;
15913;SDS011;8055;51.930;8.840;2023-12-20T01:28:24;16.00;;;5.70;;
15913;SDS011;8055;51.930;8.840;2023-12-20T01:30:50;13.65;;;5.03;;
15913;SDS011;8055;51.930;8.840;2023-12-20T01:33:15;10.70;;;5.03;;
15913;SDS011;8055;51.930;8.840;2023-12-20T01:35:41;16.15;;;4.70;;
15913;SDS011;8055;51.930;8.840;2023-12-20T01:38:06;11.77;;;4.93;;
15913;SDS011;8055;51.930;8.840;2023-12-20T01:40:32;12.10;;;4.40;;
15913;SDS011;8055;51.930;8.840;2023-12-20T01:43:00;11.77;;;4.20;;
15913;SDS011;8055;51.930;8.840;2023-12-20T01:45:33;8.55;;;3.42;;
15913;SDS011;8055;51.930;8.840;2023-12-20T01:47:58;16.48;;;4.22;;
15913;SDS011;8055;51.930;8.840;2023-12-20T01:50:25;13.57;;;3.53;;
15913;SDS011;8055;51.930;8.840;2023-12-20T01:52:51;11.93;;;3.92;;
15913;SDS011;8055;51.930;8.840;2023-12-20T01:55:20;14.50;;;4.05;;
15913;SDS011;8055;51.930;8.840;2023-12-20T01:57:46;15.10;;;4.88;;
15913;SDS011;8055;51.930;8.840;2023-12-20T02:00:12;9.02;;;4.10;;
15913;SDS011;8055;51.930;8.840;2023-12-20T02:02:40;9.15;;;4.45;;
15913;SDS011;8055;51.930;8.840;2023-12-20T02:05:06;14.35;;;5.63;;
15913;SDS011;8055;51.930;8.840;2023-12-20T02:07:32;11.30;;;4.32;;
15913;SDS011;8055;51.930;8.840;2023-12-20T02:09:58;12.98;;;5.13;;
15913;SDS011;8055;51.930;8.840;2023-12-20T02:12:23;10.20;;;4.70;;
15913;SDS011;8055;51.930;8.840;2023-12-20T02:14:49;10.32;;;3.90;;
15913;SDS011;8055;51.930;8.840;2023-12-20T02:17:15;9.40;;;4.25;;
15913;SDS011;8055;51.930;8.840;2023-12-20T02:19:44;11.70;;;3.70;;
15913;SDS011;8055;51.930;8.840;2023-12-20T02:22:12;10.10;;;3.88;;
15913;SDS011;8055;51.930;8.840;2023-12-20T02:24:38;11.65;;;3.72;;
15913;SDS011;8055;51.930;8.840;2023-12-20T02:27:05;11.73;;;4.03;;
15913;SDS011;8055;51.930;8.840;2023-12-20T02:29:32;12.63;;;4.88;;
15913;SDS011;8055;51.930;8.840;2023-12-20T02:32:00;13.30;;;4.30;;
15913;SDS011;8055;51.930;8.840;2023-12-20T02:34:25;11.25;;;3.53;;
15913;SDS011;8055;51.930;8.840;2023-12-20T02:36:51;18.15;;;3.78;;
15913;SDS011;8055;51.930;8.840;2023-12-20T02:39:16;12.52;;;3.97;;
15913;SDS011;8055;51.930;8.840;2023-12-20T02:41:43;11.55;;;4.10;;
15913;SDS011;8055;51.930;8.840;2023-12-20T02:44:08;9.93;;;3.47;;
15913;SDS011;8055;51.930;8.840;2023-12-20T02:46:34;9.88;;;3.80;;
15913;SDS011;8055;51.930;8.840;2023-12-20T02:48:59;15.05;;;3.88;;
15913;SDS011;8055;51.930;8.840;2023-12-20T02:51:24;9.10;;;3.47;;
15913;SDS011;8055;51.930;8.840;2023-12-20T02:53:50;13.75;;;4.40;;
15913;SDS011;8055;51.930;8.840;2023-12-20T02:56:15;15.77;;;4.15;;
15913;SDS011;8055;51.930;8.840;2023-12-20T02:58:40;8.80;;;4.00;;
15913;SDS011;8055;51.930;8.840;2023-12-20T03:01:06;16.90;;;4.20;;
15913;SDS011;8055;51.930;8.840;2023-12-20T03:03:31;15.35;;;4.38;;
15913;SDS011;8055;51.930;8.840;2023-12-20T03:05:57;15.50;;;4.50;;
15913;SDS011;8055;51.930;8.840;2023-12-20T03:08:22;15.73;;;5.03;;
15913;SDS011;8055;51.930;8.840;2023-12-20T03:10:47;13.45;;;4.15;;
15913;SDS011;8055;51.930;8.840;2023-12-20T03:13:13;20.65;;;5.38;;
15913;SDS011;8055;51.930;8.840;2023-12-20T03:15:38;13.48;;;4.85;;
15913;SDS011;8055;51.930;8.840;2023-12-20T03:18:04;16.08;;;4.35;;
15913;SDS011;8055;51.930;8.840;2023-12-20T03:20:29;12.00;;;4.50;;
15913;SDS011;8055;51.930;8.840;2023-12-20T03:22:58;15.60;;;4.40;;
15913;SDS011;8055;51.930;8.840;2023-12-20T03:25:23;14.93;;;5.13;;
15913;SDS011;8055;51.930;8.840;2023-12-20T03:27:48;16.13;;;5.28;;
15913;SDS011;8055;51.930;8.840;2023-12-20T03:30:14;16.08;;;5.40;;
15913;SDS011;8055;51.930;8.840;2023-12-20T03:32:39;15.18;;;5.40;;
15913;SDS011;8055;51.930;8.840;2023-12-20T03:35:05;15.77;;;5.97;;
15913;SDS011;8055;51.930;8.840;2023-12-20T03:37:30;18.15;;;5.93;;
15913;SDS011;8055;51.930;8.840;2023-12-20T03:39:56;13.40;;;6.30;;
15913;SDS011;8055;51.930;8.840;2023-12-20T03:42:21;17.70;;;6.80;;
15913;SDS011;8055;51.930;8.840;2023-12-20T03:44:46;17.75;;;6.85;;
15913;SDS011;8055;51.930;8.840;2023-12-20T03:47:12;22.20;;;8.07;;
15913;SDS011;8055;51.930;8.840;2023-12-20T03:49:37;26.02;;;9.10;;
15913;SDS011;8055;51.930;8.840;2023-12-20T03:52:03;21.63;;;7.75;;
15913;SDS011;8055;51.930;8.840;2023-12-20T03:54:29;16.13;;;7.57;;
15913;SDS011;8055;51.930;8.840;2023-12-20T03:56:55;23.02;;;8.60;;
15913;SDS011;8055;51.930;8.840;2023-12-20T03:59:20;21.85;;;8.25;;
15913;SDS011;8055;51.930;8.840;2023-12-20T04:01:45;25.00;;;7.50;;
15913;SDS011;8055;51.930;8.840;2023-12-20T04:04:11;26.25;;;8.77;;
15913;SDS011;8055;51.930;8.840;2023-12-20T04:06:38;26.20;;;7.20;;
15913;SDS011;8055;51.930;8.840;2023-12-20T04:09:04;24.50;;;7.40;;
15913;SDS011;8055;51.930;8.840;2023-12-20T04:11:29;20.52;;;6.95;;
15913;SDS011;8055;51.930;8.840;2023-12-20T04:13:55;26.58;;;8.00;;
15913;SDS011;8055;51.930;8.840;2023-12-20T04:16:20;19.95;;;7.60;;
15913;SDS011;8055;51.930;8.840;2023-12-20T04:18:46;22.70;;;7.63;;
15913;SDS011;8055;51.930;8.840;2023-12-20T04:21:11;23.55;;;7.03;;
15913;SDS011;8055;51.930;8.840;2023-12-20T04:23:36;24.08;;;8.18;;
15913;SDS011;8055;51.930;8.840;2023-12-20T04:26:02;17.88;;;6.90;;
15913;SDS011;8055;51.930;8.840;2023-12-20T04:28:27;25.50;;;6.60;;
15913;SDS011;8055;51.930;8.840;2023-12-20T04:30:55;25.48;;;7.95;;
15913;SDS011;8055;51.930;8.840;2023-12-20T04:33:20;17.30;;;7.10;;
15913;SDS011;8055;51.930;8.840;2023-12-20T04:35:46;21.27;;;8.00;;
15913;SDS011;8055;51.930;8.840;2023-12-20T04:38:11;24.73;;;7.65;;
15913;SDS011;8055;51.930;8.840;2023-12-20T04:40:37;19.38;;;7.18;;
15913;SDS011;8055;51.930;8.840;2023-12-20T04:43:02;22.48;;;7.60;;
15913;SDS011;8055;51.930;8.840;2023-12-20T04:45:28;20.23;;;7.60;;
15913;SDS011;8055;51.930;8.840;2023-12-20T04:47:53;21.40;;;7.30;;
15913;SDS011;8055;51.930;8.840;2023-12-20T04:50:18;25.88;;;6.75;;
15913;SDS011;8055;51.930;8.840;2023-12-20T04:52:44;27.00;;;6.75;;
15913;SDS011;8055;51.930;8.840;2023-12-20T04:55:10;19.85;;;6.72;;
15913;SDS011;8055;51.930;8.840;2023-12-20T04:57:35;26.70;;;8.10;;
15913;SDS011;8055;51.930;8.840;2023-12-20T05:00:01;22.92;;;7.45;;
15913;SDS011;8055;51.930;8.840;2023-12-20T05:02:26;29.38;;;8.13;;
15913;SDS011;8055;51.930;8.840;2023-12-20T05:04:52;17.60;;;7.13;;
15913;SDS011;8055;51.930;8.840;2023-12-20T05:07:17;30.42;;;7.63;;
15913;SDS011;8055;51.930;8.840;2023-12-20T05:09:42;24.95;;;7.43;;
15913;SDS011;8055;51.930;8.840;2023-12-20T05:12:08;20.98;;;6.53;;
15913;SDS011;8055;51.930;8.840;2023-12-20T05:14:33;31.48;;;8.05;;
15913;SDS011;8055;51.930;8.840;2023-12-20T05:16:58;17.88;;;6.32;;
15913;SDS011;8055;51.930;8.840;2023-12-20T05:19:24;22.08;;;7.13;;
15913;SDS011;8055;51.930;8.840;2023-12-20T05:21:50;23.95;;;7.38;;
15913;SDS011;8055;51.930;8.840;2023-12-20T05:24:15;17.70;;;5.97;;
15913;SDS011;8055;51.930;8.840;2023-12-20T05:26:40;22.77;;;6.80;;
15913;SDS011;8055;51.930;8.840;2023-12-20T05:29:06;21.75;;;5.57;;
15913;SDS011;8055;51.930;8.840;2023-12-20T05:31:31;25.27;;;6.97;;
15913;SDS011;8055;51.930;8.840;2023-12-20T05:33:57;20.67;;;6.32;;
15913;SDS011;8055;51.930;8.840;2023-12-20T05:36:23;18.30;;;5.97;;
15913;SDS011;8055;51.930;8.840;2023-12-20T05:38:48;26.38;;;6.43;;
15913;SDS011;8055;51.930;8.840;2023-12-20T05:41:14;18.02;;;5.78;;
15913;SDS011;8055;51.930;8.840;2023-12-20T05:43:39;24.67;;;6.90;;
15913;SDS011;8055;51.930;8.840;2023-12-20T05:46:05;23.58;;;7.20;;
15913;SDS011;8055;51.930;8.840;2023-12-20T05:48:30;20.95;;;5.93;;
15913;SDS011;8055;51.930;8.840;2023-12-20T05:50:55;20.85;;;6.15;;
15913;SDS011;8055;51.930;8.840;2023-12-20T05:53:21;21.30;;;6.18;;
15913;SDS011;8055;51.930;8.840;2023-12-20T05:55:46;28.70;;;7.05;;
15913;SDS011;8055;51.930;8.840;2023-12-20T05:58:11;21.02;;;6.80;;
15913;SDS011;8055;51.930;8.840;2023-12-20T06:00:37;23.08;;;6.43;;
15913;SDS011;8055;51.930;8.840;2023-12-20T06:03:03;27.50;;;6.80;;
15913;SDS011;8055;51.930;8.840;2023-12-20T06:05:29;21.70;;;6.55;;
15913;SDS011;8055;51.930;8.840;2023-12-20T06:07:55;19.10;;;7.43;;
15913;SDS011;8055;51.930;8.840;2023-12-20T06:10:22;24.65;;;7.18;;
15913;SDS011;8055;51.930;8.840;2023-12-20T06:12:48;24.88;;;7.80;;
15913;SDS011;8055;51.930;8.840;2023-12-20T06:15:15;22.80;;;6.65;;
15913;SDS011;8055;51.930;8.840;2023-12-20T06:17:40;26.95;;;7.10;;
15913;SDS011;8055;51.930;8.840;2023-12-20T06:20:07;36.72;;;8.25;;
15913;SDS011;8055;51.930;8.840;2023-12-20T06:22:34;20.60;;;7.63;;
15913;SDS011;8055;51.930;8.840;2023-12-20T06:24:59;24.80;;;8.68;;
15913;SDS011;8055;51.930;8.840;2023-12-20T06:27:25;30.48;;;8.38;;
15913;SDS011;8055;51.930;8.840;2023-12-20T06:29:50;27.90;;;7.43;;
15913;SDS011;8055;51.930;8.840;2023-12-20T06:32:15;21.60;;;8.63;;
15913;SDS011;8055;51.930;8.840;2023-12-20T06:34:41;22.25;;;7.45;;
15913;SDS011;8055;51.930;8.840;2023-12-20T06:37:06;25.13;;;7.30;;
15913;SDS011;8055;51.930;8.840;2023-12-20T06:39:31;16.95;;;6.97;;
15913;SDS011;8055;51.930;8.840;2023-12-20T06:41:59;25.85;;;8.30;;
15913;SDS011;8055;51.930;8.840;2023-12-20T06:44:24;24.73;;;8.30;;
15913;SDS011;8055;51.930;8.840;2023-12-20T06:46:50;25.45;;;7.32;;
15913;SDS011;8055;51.930;8.840;2023-12-20T06:49:15;22.67;;;7.82;;
15913;SDS011;8055;51.930;8.840;2023-12-20T06:51:40;21.48;;;8.00;;
15913;SDS011;8055;51.930;8.840;2023-12-20T06:54:06;22.92;;;7.82;;
15913;SDS011;8055;51.930;8.840;2023-12-20T06:56:32;23.55;;;7.85;;
15913;SDS011;8055;51.930;8.840;2023-12-20T06:58:57;24.95;;;8.13;;
15913;SDS011;8055;51.930;8.840;2023-12-20T07:01:23;14.95;;;7.40;;
15913;SDS011;8055;51.930;8.840;2023-12-20T07:03:48;18.80;;;7.25;;
15913;SDS011;8055;51.930;8.840;2023-12-20T07:06:14;30.00;;;8.43;;
15913;SDS011;8055;51.930;8.840;2023-12-20T07:08:41;19.88;;;7.13;;
15913;SDS011;8055;51.930;8.840;2023-12-20T07:11:07;29.80;;;7.22;;
15913;SDS011;8055;51.930;8.840;2023-12-20T07:13:32;27.73;;;8.43;;
15913;SDS011;8055;51.930;8.840;2023-12-20T07:15:57;27.50;;;7.32;;
15913;SDS011;8055;51.930;8.840;2023-12-20T07:18:23;25.45;;;8.43;;
15913;SDS011;8055;51.930;8.840;2023-12-20T07:20:48;21.95;;;7.75;;
15913;SDS011;8055;51.930;8.840;2023-12-20T07:23:13;23.58;;;7.78;;
15913;SDS011;8055;51.930;8.840;2023-12-20T07:25:39;27.35;;;7.80;;
15913;SDS011;8055;51.930;8.840;2023-12-20T07:28:04;31.27;;;9.18;;
15913;SDS011;8055;51.930;8.840;2023-12-20T07:30:30;31.27;;;8.38;;
15913;SDS011;8055;51.930;8.840;2023-12-20T07:32:55;25.35;;;7.90;;
15913;SDS011;8055;51.930;8.840;2023-12-20T07:35:21;30.15;;;8.27;;
15913;SDS011;8055;51.930;8.840;2023-12-20T07:37:48;34.42;;;8.63;;
15913;SDS011;8055;51.930;8.840;2023-12-20T07:40:13;24.63;;;7.63;;
15913;SDS011;8055;51.930;8.840;2023-12-20T07:42:38;24.67;;;7.88;;
15913;SDS011;8055;51.930;8.840;2023-12-20T07:45:04;23.63;;;7.85;;
15913;SDS011;8055;51.930;8.840;2023-12-20T07:47:30;31.27;;;8.75;;
15913;SDS011;8055;51.930;8.840;2023-12-20T07:49:55;27.88;;;8.55;;
15913;SDS011;8055;51.930;8.840;2023-12-20T07:52:21;25.45;;;7.63;;
15913;SDS011;8055;51.930;8.840;2023-12-20T07:54:47;23.30;;;8.20;;
15913;SDS011;8055;51.930;8.840;2023-12-20T07:57:13;33.67;;;8.30;;
15913;SDS011;8055;51.930;8.840;2023-12-20T07:59:38;25.88;;;7.90;;
15913;SDS011;8055;51.930;8.840;2023-12-20T08:02:03;30.15;;;8.48;;
15913;SDS011;8055;51.930;8.840;2023-12-20T08:04:29;24.20;;;7.72;;
15913;SDS011;8055;51.930;8.840;2023-12-20T08:06:54;27.75;;;8.93;;
15913;SDS011;8055;51.930;8.840;2023-12-20T08:09:20;22.55;;;8.38;;
15913;SDS011;8055;51.930;8.840;2023-12-20T08:11:48;29.55;;;9.23;;
15913;SDS011;8055;51.930;8.840;2023-12-20T08:14:14;27.42;;;9.30;;
15913;SDS011;8055;51.930;8.840;2023-12-20T08:16:40;25.30;;;9.60;;
15913;SDS011;8055;51.930;8.840;2023-12-20T08:19:05;30.42;;;9.25;;
15913;SDS011;8055;51.930;8.840;2023-12-20T08:21:31;27.10;;;10.50;;
15913;SDS011;8055;51.930;8.840;2023-12-20T08:23:56;30.52;;;10.30;;
15913;SDS011;8055;51.930;8.840;2023-12-20T08:26:21;27.85;;;9.63;;
15913;SDS011;8055;51.930;8.840;2023-12-20T08:28:48;26.27;;;9.75;;
15913;SDS011;8055;51.930;8.840;2023-12-20T08:31:14;27.42;;;8.88;;
15913;SDS011;8055;51.930;8.840;2023-12-20T08:33:41;32.78;;;10.00;;
15913;SDS011;8055;51.930;8.840;2023-12-20T08:36:06;30.15;;;10.43;;
15913;SDS011;8055;51.930;8.840;2023-12-20T08:38:32;24.65;;;9.80;;
15913;SDS011;8055;51.930;8.840;2023-12-20T08:40:57;29.15;;;11.13;;
15913;SDS011;8055;51.930;8.840;2023-12-20T08:43:22;28.00;;;10.80;;
15913;SDS011;8055;51.930;8.840;2023-12-20T08:45:48;29.17;;;11.60;;
15913;SDS011;8055;51.930;8.840;2023-12-20T08:48:13;34.13;;;11.50;;
15913;SDS011;8055;51.930;8.840;2023-12-20T08:50:38;32.10;;;11.65;;
15913;SDS011;8055;51.930;8.840;2023-12-20T08:53:04;30.25;;;12.05;;
15913;SDS011;8055;51.930;8.840;2023-12-20T08:55:29;32.17;;;12.75;;
15913;SDS011;8055;51.930;8.840;2023-12-20T08:57:56;36.13;;;12.73;;
15913;SDS011;8055;51.930;8.840;2023-12-20T09:00:21;38.75;;;14.35;;
15913;SDS011;8055;51.930;8.840;2023-12-20T09:02:49;31.85;;;13.30;;
15913;SDS011;8055;51.930;8.840;2023-12-20T09:05:15;31.58;;;12.95;;
15913;SDS011;8055;51.930;8.840;2023-12-20T09:07:40;40.08;;;14.27;;
15913;SDS011;8055;51.930;8.840;2023-12-20T09:10:05;29.85;;;12.80;;
15913;SDS011;8055;51.930;8.840;2023-12-20T09:12:31;35.90;;;12.95;;
15913;SDS011;8055;51.930;8.840;2023-12-20T09:14:56;33.08;;;13.30;;
15913;SDS011;8055;51.930;8.840;2023-12-20T09:17:22;39.05;;;14.98;;
15913;SDS011;8055;51.930;8.840;2023-12-20T09:19:48;35.50;;;12.90;;
15913;SDS011;8055;51.930;8.840;2023-12-20T09:22:13;32.03;;;12.70;;
15913;SDS011;8055;51.930;8.840;2023-12-20T09:24:38;36.08;;;13.45;;
15913;SDS011;8055;51.930;8.840;2023-12-20T09:27:04;35.88;;;14.45;;
15913;SDS011;8055;51.930;8.840;2023-12-20T09:29:30;27.65;;;12.68;;
15913;SDS011;8055;51.930;8.840;2023-12-20T09:31:56;34.72;;;13.75;;
15913;SDS011;8055;51.930;8.840;2023-12-20T09:34:22;36.00;;;13.80;;
15913;SDS011;8055;51.930;8.840;2023-12-20T09:36:48;41.75;;;14.68;;
15913;SDS011;8055;51.930;8.840;2023-12-20T09:39:14;29.23;;;12.63;;
15913;SDS011;8055;51.930;8.840;2023-12-20T09:41:42;35.95;;;13.55;;
15913;SDS011;8055;51.930;8.840;2023-12-20T09:44:13;34.38;;;13.40;;
15913;SDS011;8055;51.930;8.840;2023-12-20T09:46:42;31.50;;;13.27;;
15913;SDS011;8055;51.930;8.840;2023-12-20T09:49:09;30.23;;;13.10;;
15913;SDS011;8055;51.930;8.840;2023-12-20T09:51:35;34.35;;;12.60;;
15913;SDS011;8055;51.930;8.840;2023-12-20T09:54:02;29.67;;;13.73;;
15913;SDS011;8055;51.930;8.840;2023-12-20T09:56:29;32.70;;;13.55;;
15913;SDS011;8055;51.930;8.840;2023-12-20T09:58:55;34.03;;;13.10;;
15913;SDS011;8055;51.930;8.840;2023-12-20T10:01:20;30.63;;;13.05;;
15913;SDS011;8055;51.930;8.840;2023-12-20T10:03:46;43.67;;;13.77;;
15913;SDS011;8055;51.930;8.840;2023-12-20T10:06:12;37.50;;;15.48;;
15913;SDS011;8055;51.930;8.840;2023-12-20T10:08:38;28.92;;;13.52;;
15913;SDS011;8055;51.930;8.840;2023-12-20T10:11:04;36.13;;;14.77;;
15913;SDS011;8055;51.930;8.840;2023-12-20T10:13:30;35.03;;;12.95;;
15913;SDS011;8055;51.930;8.840;2023-12-20T10:15:55;34.70;;;13.35;;
15913;SDS011;8055;51.930;8.840;2023-12-20T10:18:22;33.63;;;14.00;;
15913;SDS011;8055;51.930;8.840;2023-12-20T10:20:48;31.02;;;13.13;;
15913;SDS011;8055;51.930;8.840;2023-12-20T10:23:13;31.05;;;13.65;;
15913;SDS011;8055;51.930;8.840;2023-12-20T10:25:40;26.67;;;12.27;;
15913;SDS011;8055;51.930;8.840;2023-12-20T10:28:13;28.73;;;12.20;;
15913;SDS011;8055;51.930;8.840;2023-12-20T10:30:47;31.48;;;13.93;;
15913;SDS011;8055;51.930;8.840;2023-12-20T10:33:13;28.90;;;11.32;;
15913;SDS011;8055;51.930;8.840;2023-12-20T10:35:39;30.48;;;12.05;;
15913;SDS011;8055;51.930;8.840;2023-12-20T10:38:05;27.17;;;12.60;;
15913;SDS011;8055;51.930;8.840;2023-12-20T10:40:34;26.75;;;11.68;;
15913;SDS011;8055;51.930;8.840;2023-12-20T10:43:04;29.15;;;11.98;;
15913;SDS011;8055;51.930;8.840;2023-12-20T10:45:30;26.63;;;10.65;;
15913;SDS011;8055;51.930;8.840;2023-12-20T10:47:56;27.67;;;13.57;;
15913;SDS011;8055;51.930;8.840;2023-12-20T10:50:24;31.85;;;13.77;;
15913;SDS011;8055;51.930;8.840;2023-12-20T10:52:49;32.38;;;14.38;;
15913;SDS011;8055;51.930;8.840;2023-12-20T10:55:20;32.58;;;14.23;;
15913;SDS011;8055;51.930;8.840;2023-12-20T10:57:46;31.02;;;13.65;;
15913;SDS011;8055;51.930;8.840;2023-12-20T11:00:16;32.40;;;14.55;;
15913;SDS011;8055;51.930;8.840;2023-12-20T11:02:43;32.17;;;13.73;;
15913;SDS011;8055;51.930;8.840;2023-12-20T11:08:32;35.10;;;14.57;;
15913;SDS011;8055;51.930;8.840;2023-12-20T11:10:51;32.08;;;14.00;;
15913;SDS011;8055;51.930;8.840;2023-12-20T11:13:40;31.33;;;14.18;;
15913;SDS011;8055;51.930;8.840;2023-12-20T11:16:33;35.03;;;15.18;;
15913;SDS011;8055;51.930;8.840;2023-12-20T11:19:05;32.78;;;13.93;;
15913;SDS011;8055;51.930;8.840;2023-12-20T11:21:31;31.30;;;13.13;;
15913;SDS011;8055;51.930;8.840;2023-12-20T11:23:56;29.05;;;12.15;;
15913;SDS011;8055;51.930;8.840;2023-12-20T11:26:28;31.23;;;11.93;;
15913;SDS011;8055;51.930;8.840;2023-12-20T11:28:54;28.17;;;11.90;;
15913;SDS011;8055;51.930;8.840;2023-12-20T11:31:42;24.58;;;11.10;;
15913;SDS011;8055;51.930;8.840;2023-12-20T11:34:13;31.42;;;11.65;;
15913;SDS011;8055;51.930;8.840;2023-12-20T11:36:42;30.00;;;10.55;;
15913;SDS011;8055;51.930;8.840;2023-12-20T11:39:07;22.88;;;9.52;;
15913;SDS011;8055;51.930;8.840;2023-12-20T11:41:35;26.02;;;10.52;;
15913;SDS011;8055;51.930;8.840;2023-12-20T11:44:01;21.10;;;9.07;;
15913;SDS011;8055;51.930;8.840;2023-12-20T11:46:29;18.83;;;7.68;;
15913;SDS011;8055;51.930;8.840;2023-12-20T11:48:56;28.65;;;9.27;;
15913;SDS011;8055;51.930;8.840;2023-12-20T11:51:21;21.90;;;7.55;;
15913;SDS011;8055;51.930;8.840;2023-12-20T11:53:50;24.25;;;7.38;;
15913;SDS011;8055;51.930;8.840;2023-12-20T11:56:17;26.55;;;7.70;;
15913;SDS011;8055;51.930;8.840;2023-12-20T11:58:42;16.20;;;6.13;;
15913;SDS011;8055;51.930;8.840;2023-12-20T12:01:08;22.25;;;7.18;;
15913;SDS011;8055;51.930;8.840;2023-12-20T12:03:33;14.60;;;6.85;;
15913;SDS011;8055;51.930;8.840;2023-12-20T12:05:59;17.63;;;6.35;;
15913;SDS011;8055;51.930;8.840;2023-12-20T12:08:26;20.23;;;7.10;;
15913;SDS011;8055;51.930;8.840;2023-12-20T12:10:51;22.70;;;7.05;;
15913;SDS011;8055;51.930;8.840;2023-12-20T12:13:16;15.63;;;6.28;;
15913;SDS011;8055;51.930;8.840;2023-12-20T12:15:42;18.20;;;5.97;;
15913;SDS011;8055;51.930;8.840;2023-12-20T12:18:08;17.90;;;6.53;;
15913;SDS011;8055;51.930;8.840;2023-12-20T12:20:33;15.98;;;5.85;;
15913;SDS011;8055;51.930;8.840;2023-12-20T12:25:28;15.93;;;5.20;;
15913;SDS011;8055;51.930;8.840;2023-12-20T12:27:54;14.65;;;4.75;;
15913;SDS011;8055;51.930;8.840;2023-12-20T12:30:20;14.48;;;4.65;;
15913;SDS011;8055;51.930;8.840;2023-12-20T12:32:46;17.73;;;4.60;;
15913;SDS011;8055;51.930;8.840;2023-12-20T12:35:11;13.65;;;4.95;;
15913;SDS011;8055;51.930;8.840;2023-12-20T12:37:37;19.17;;;5.25;;
15913;SDS011;8055;51.930;8.840;2023-12-20T12:42:39;14.18;;;4.60;;
15913;SDS011;8055;51.930;8.840;2023-12-20T12:45:06;13.65;;;4.38;;
15913;SDS011;8055;51.930;8.840;2023-12-20T12:47:32;17.55;;;4.97;;
15913;SDS011;8055;51.930;8.840;2023-12-20T12:49:58;16.17;;;4.85;;
15913;SDS011;8055;51.930;8.840;2023-12-20T12:52:23;12.65;;;4.25;;
15913;SDS011;8055;51.930;8.840;2023-12-20T12:54:48;14.50;;;4.55;;
15913;SDS011;8055;51.930;8.840;2023-12-20T12:57:14;16.05;;;5.15;;
15913;SDS011;8055;51.930;8.840;2023-12-20T12:59:41;17.65;;;4.25;;
15913;SDS011;8055;51.930;8.840;2023-12-20T13:02:11;14.80;;;5.03;;
15913;SDS011;8055;51.930;8.840;2023-12-20T13:04:36;20.30;;;5.00;;
15913;SDS011;8055;51.930;8.840;2023-12-20T13:07:02;16.80;;;4.53;;
15913;SDS011;8055;51.930;8.840;2023-12-20T13:09:27;16.35;;;4.60;;
15913;SDS011;8055;51.930;8.840;2023-12-20T13:11:53;18.67;;;5.00;;
15913;SDS011;8055;51.930;8.840;2023-12-20T13:14:18;15.68;;;4.50;;
15913;SDS011;8055;51.930;8.840;2023-12-20T13:16:43;19.45;;;5.57;;
15913;SDS011;8055;51.930;8.840;2023-12-20T13:19:10;12.63;;;4.90;;
15913;SDS011;8055;51.930;8.840;2023-12-20T13:21:36;22.90;;;5.53;;
15913;SDS011;8055;51.930;8.840;2023-12-20T13:24:01;20.67;;;5.38;;
15913;SDS011;8055;51.930;8.840;2023-12-20T13:26:27;24.40;;;6.20;;
15913;SDS011;8055;51.930;8.840;2023-12-20T13:28:53;18.73;;;4.93;;
15913;SDS011;8055;51.930;8.840;2023-12-20T13:31:19;13.95;;;4.57;;
15913;SDS011;8055;51.930;8.840;2023-12-20T13:33:45;21.23;;;5.68;;
15913;SDS011;8055;51.930;8.840;2023-12-20T13:36:11;18.67;;;5.05;;
15913;SDS011;8055;51.930;8.840;2023-12-20T13:38:36;20.80;;;5.55;;
15913;SDS011;8055;51.930;8.840;2023-12-20T13:41:02;18.92;;;5.85;;
15913;SDS011;8055;51.930;8.840;2023-12-20T13:43:27;21.05;;;5.55;;
15913;SDS011;8055;51.930;8.840;2023-12-20T13:45:53;22.83;;;6.03;;
15913;SDS011;8055;51.930;8.840;2023-12-20T13:48:18;23.67;;;5.35;;
15913;SDS011;8055;51.930;8.840;2023-12-20T13:50:44;15.40;;;6.78;;
15913;SDS011;8055;51.930;8.840;2023-12-20T13:53:09;31.48;;;15.00;;
15913;SDS011;8055;51.930;8.840;2023-12-20T13:55:34;20.45;;;10.80;;
15913;SDS011;8055;51.930;8.840;2023-12-20T13:58:00;12.75;;;8.98;;
15913;SDS011;8055;51.930;8.840;2023-12-20T14:00:25;10.30;;;4.47;;
15913;SDS011;8055;51.930;8.840;2023-12-20T14:02:50;13.05;;;3.88;;
15913;SDS011;8055;51.930;8.840;2023-12-20T14:05:16;11.13;;;3.10;;
15913;SDS011;8055;51.930;8.840;2023-12-20T14:07:44;10.95;;;2.70;;
15913;SDS011;8055;51.930;8.840;2023-12-20T14:10:13;6.85;;;2.30;;
15913;SDS011;8055;51.930;8.840;2023-12-20T14:12:39;6.70;;;2.20;;
15913;SDS011;8055;51.930;8.840;2023-12-20T14:15:04;6.57;;;2.20;;
15913;SDS011;8055;51.930;8.840;2023-12-20T14:17:35;7.05;;;3.00;;
15913;SDS011;8055;51.930;8.840;2023-12-20T14:20:07;7.90;;;4.72;;
15913;SDS011;8055;51.930;8.840;2023-12-20T14:22:33;9.20;;;4.53;;
15913;SDS011;8055;51.930;8.840;2023-12-20T14:24:58;8.13;;;1.73;;
15913;SDS011;8055;51.930;8.840;2023-12-20T14:27:24;7.13;;;1.65;;
15913;SDS011;8055;51.930;8.840;2023-12-20T14:29:52;4.55;;;1.58;;
15913;SDS011;8055;51.930;8.840;2023-12-20T14:32:18;5.22;;;1.95;;
15913;SDS011;8055;51.930;8.840;2023-12-20T14:34:44;5.53;;;1.55;;
15913;SDS011;8055;51.930;8.840;2023-12-20T14:37:09;4.32;;;1.50;;
15913;SDS011;8055;51.930;8.840;2023-12-20T14:39:34;7.57;;;2.05;;
15913;SDS011;8055;51.930;8.840;2023-12-20T14:42:04;7.10;;;2.03;;
15913;SDS011;8055;51.930;8.840;2023-12-20T14:44:29;5.45;;;1.80;;
15913;SDS011;8055;51.930;8.840;2023-12-20T14:46:55;4.18;;;1.33;;